createdAt,value
2022-07-30T06:07:30.799Z,101649.63
2022-07-30T06:10:12.231Z,101649.22
2022-07-30T06:12:49.249Z,101638.91
2022-07-30T06:15:28.748Z,101644.44
2022-07-30T06:18:05.628Z,101649.94
2022-07-30T06:20:57.474Z,101641.16
2022-07-30T06:23:59.016Z,101646.25
2022-07-30T06:27:05.206Z,101643.72
2022-07-30T06:29:42.513Z,101634.91
2022-07-30T06:32:21.000Z,101637.72
2022-07-30T06:35:04.334Z,101626.41
2022-07-30T06:38:05.665Z,101631.91
2022-07-30T06:40:43.553Z,101636.28
2022-07-30T06:43:28.509Z,101634.13
2022-07-30T06:46:17.912Z,101631.72
2022-07-30T06:48:59.642Z,101633.38
2022-07-30T06:51:37.181Z,101633.09
2022-07-30T06:54:14.898Z,101635.88
2022-07-30T06:57:26.881Z,101633.00
2022-07-30T07:00:04.596Z,101644.31
2022-07-30T07:02:46.464Z,101639.47
2022-07-30T07:05:29.679Z,101644.28
2022-07-30T07:08:08.466Z,101639.28
2022-07-30T07:10:50.279Z,101641.53
2022-07-30T07:13:44.523Z,101646.16
2022-07-30T07:16:28.179Z,101646.56
2022-07-30T07:19:06.045Z,101649.81
2022-07-30T07:21:43.223Z,101643.00
2022-07-30T07:24:20.323Z,101638.00
2022-07-30T07:27:16.543Z,101631.00
2022-07-30T07:30:05.063Z,101633.75
2022-07-30T07:32:45.933Z,101627.78
2022-07-30T07:35:23.983Z,101629.81
2022-07-30T07:38:01.320Z,101628.53
2022-07-30T07:40:39.659Z,101626.22
2022-07-30T07:43:16.707Z,101627.91
2022-07-30T07:45:57.144Z,101632.69
2022-07-30T07:48:37.070Z,101625.00
2022-07-30T07:51:46.750Z,101629.44
2022-07-30T07:54:27.569Z,101623.09
2022-07-30T07:57:10.410Z,101617.44
2022-07-30T07:59:54.614Z,101616.09
2022-07-30T08:02:39.625Z,101612.94
2022-07-30T08:05:19.540Z,101602.00
2022-07-30T08:07:56.230Z,101614.22
2022-07-30T08:10:51.539Z,101603.63
2022-07-30T08:13:54.413Z,101607.94
2022-07-30T08:17:00.999Z,101593.09
2022-07-30T08:20:11.908Z,101599.53
2022-07-30T08:22:48.946Z,101607.31
2022-07-30T08:25:26.537Z,101605.13
2022-07-30T08:28:03.852Z,101605.00
2022-07-30T08:30:40.895Z,101598.75
2022-07-30T08:33:17.883Z,101605.53
2022-07-30T08:36:03.956Z,101607.56
2022-07-30T08:38:43.298Z,101600.34
2022-07-30T08:41:23.069Z,101605.94
2022-07-30T08:44:02.813Z,101592.47
2022-07-30T08:46:47.467Z,101585.59
2022-07-30T08:49:53.048Z,101593.69
2022-07-30T08:52:39.419Z,101601.50
2022-07-30T08:55:18.880Z,101601.69
2022-07-30T08:57:55.848Z,101600.19
2022-07-30T09:00:34.462Z,101592.44
2022-07-30T09:03:11.200Z,101587.19
2022-07-30T09:05:48.409Z,101594.47
2022-07-30T09:08:28.518Z,101591.59
2022-07-30T09:11:06.138Z,101597.72
2022-07-30T09:13:44.924Z,101589.44
2022-07-30T09:16:25.520Z,101579.63
2022-07-30T09:19:16.983Z,101589.09
2022-07-30T09:22:03.561Z,101591.44
2022-07-30T09:25:15.795Z,101591.41
2022-07-30T09:28:33.503Z,101587.81
2022-07-30T09:31:26.421Z,101588.03
2022-07-30T09:34:30.920Z,101586.66
2022-07-30T09:37:30.759Z,101584.75
2022-07-30T09:40:32.383Z,101587.25
2022-07-30T09:43:30.981Z,101577.41
2022-07-30T09:46:20.903Z,101583.47
2022-07-30T09:49:18.980Z,101592.56
2022-07-30T09:51:59.201Z,101582.06
2022-07-30T09:54:54.344Z,101593.16
2022-07-30T09:57:37.463Z,101582.66
2022-07-30T10:00:30.072Z,101582.59
2022-07-30T10:03:46.615Z,101588.28
2022-07-30T10:06:42.518Z,101575.53
2022-07-30T10:09:33.040Z,101585.09
2022-07-30T10:12:16.780Z,101588.13
2022-07-30T10:15:02.204Z,101588.06
2022-07-30T10:17:43.803Z,101585.94
2022-07-30T10:20:37.444Z,101582.31
2022-07-30T10:23:44.333Z,101576.00
2022-07-30T10:26:51.323Z,101577.31
2022-07-30T10:29:47.065Z,101564.78
2022-07-30T10:32:30.979Z,101582.38
2022-07-30T10:35:09.482Z,101585.09
2022-07-30T10:37:53.176Z,101586.22
2022-07-30T10:40:35.990Z,101584.66
2022-07-30T10:44:09.811Z,101591.41
2022-07-30T10:46:59.501Z,101592.41
2022-07-30T10:50:15.693Z,101584.84
2022-07-30T10:52:55.879Z,101577.34
2022-07-30T10:55:38.954Z,101589.16
2022-07-30T10:58:22.879Z,101582.50
2022-07-30T11:01:03.509Z,101586.38
2022-07-30T11:03:45.093Z,101582.50
2022-07-30T11:06:34.326Z,101576.81
2022-07-30T11:09:41.849Z,101577.94
2022-07-30T11:12:39.317Z,101573.34
2022-07-30T11:15:19.082Z,101568.56
2022-07-30T11:18:11.339Z,101573.63
2022-07-30T11:21:24.194Z,101571.03
2022-07-30T11:24:04.590Z,101563.38
2022-07-30T11:26:56.666Z,101561.56
2022-07-30T11:29:50.492Z,101569.88
2022-07-30T11:32:32.090Z,101570.81
2022-07-30T11:35:24.549Z,101566.50
2022-07-30T11:38:12.487Z,101565.06
2022-07-30T11:41:15.927Z,101565.34
2022-07-30T11:44:12.717Z,101565.81
2022-07-30T11:46:52.778Z,101570.94
2022-07-30T11:49:37.667Z,101571.09
2022-07-30T11:52:15.284Z,101568.94
2022-07-30T11:54:56.647Z,101561.69
2022-07-30T11:57:46.865Z,101562.59
2022-07-30T12:00:24.335Z,101561.47
2022-07-30T12:03:03.953Z,101568.72
2022-07-30T12:05:41.676Z,101563.00
2022-07-30T12:08:31.648Z,101557.31
2022-07-30T12:11:13.798Z,101556.94
2022-07-30T12:14:04.528Z,101558.22
2022-07-30T12:16:42.711Z,101565.34
2022-07-30T12:19:19.979Z,101549.41
2022-07-30T12:22:01.676Z,101548.47
2022-07-30T12:24:38.897Z,101538.75
2022-07-30T12:27:16.087Z,101543.13
2022-07-30T12:29:55.809Z,101547.88
2022-07-30T12:32:32.721Z,101541.84
2022-07-30T12:35:10.728Z,101546.59
2022-07-30T12:38:07.688Z,101544.41
2022-07-30T12:41:00.329Z,101549.09
2022-07-30T12:43:59.212Z,101552.31
2022-07-30T12:46:44.392Z,101536.38
2022-07-30T12:49:22.795Z,101540.41
2022-07-30T12:52:00.764Z,101536.19
2022-07-30T12:54:37.787Z,101535.38
2022-07-30T12:57:14.816Z,101534.31
2022-07-30T13:00:03.738Z,101533.66
2022-07-30T13:02:43.587Z,101525.72
2022-07-30T13:05:20.625Z,101535.75
2022-07-30T13:08:00.820Z,101526.59
2022-07-30T13:10:37.645Z,101528.09
2022-07-30T13:13:14.806Z,101526.47
2022-07-30T13:16:03.293Z,101523.53
2022-07-30T13:18:43.434Z,101517.69
2022-07-30T13:21:20.166Z,101517.28
2022-07-30T13:23:57.436Z,101516.03
2022-07-30T13:26:35.947Z,101515.00
2022-07-30T13:29:13.836Z,101507.03
2022-07-30T13:31:50.743Z,101511.44
2022-07-30T13:34:30.435Z,101516.88
2022-07-30T13:37:07.175Z,101515.19
2022-07-30T13:39:44.304Z,101507.63
2022-07-30T13:42:21.004Z,101511.00
2022-07-30T13:44:58.676Z,101500.06
2022-07-30T13:47:36.096Z,101501.69
2022-07-30T13:50:15.976Z,101497.66
2022-07-30T13:52:52.896Z,101503.31
2022-07-30T13:55:30.544Z,101497.44
2022-07-30T13:58:07.435Z,101480.81
2022-07-30T14:00:45.533Z,101477.66
2022-07-30T14:03:22.359Z,101486.34
2022-07-30T14:06:11.139Z,101485.94
2022-07-30T14:08:48.936Z,101488.91
2022-07-30T14:11:26.513Z,101491.38
2022-07-30T14:14:03.260Z,101484.63
2022-07-30T14:16:45.627Z,101481.69
2022-07-30T14:19:24.364Z,101483.34
2022-07-30T14:22:04.769Z,101477.44
2022-07-30T14:24:42.130Z,101477.78
2022-07-30T14:27:23.642Z,101485.72
2022-07-30T14:30:00.460Z,101480.41
2022-07-30T14:32:38.091Z,101474.06
2022-07-30T14:35:15.703Z,101479.72
2022-07-30T14:37:55.372Z,101475.50
2022-07-30T14:40:32.398Z,101485.34
2022-07-30T14:43:09.560Z,101475.00
2022-07-30T14:45:50.838Z,101474.50
2022-07-30T14:48:27.908Z,101474.25
2022-07-30T14:51:17.938Z,101471.53
2022-07-30T14:54:01.740Z,101471.97
2022-07-30T14:56:38.407Z,101473.19
2022-07-30T14:59:15.367Z,101454.75
2022-07-30T15:01:52.985Z,101457.22
2022-07-30T15:04:30.126Z,101446.31
2022-07-30T15:07:06.965Z,101442.94
2022-07-30T15:09:46.727Z,101450.97
2022-07-30T15:12:27.178Z,101449.31
2022-07-30T15:15:04.407Z,101459.03
2022-07-30T15:17:43.306Z,101459.16
2022-07-30T15:20:20.349Z,101456.53
2022-07-30T15:22:57.288Z,101456.28
2022-07-30T15:25:36.975Z,101454.88
2022-07-30T15:28:13.827Z,101452.31
2022-07-30T15:30:50.887Z,101451.69
2022-07-30T15:33:27.918Z,101453.16
2022-07-30T15:36:04.960Z,101452.78
2022-07-30T15:38:42.306Z,101454.75
2022-07-30T15:41:21.946Z,101444.94
2022-07-30T15:43:58.628Z,101451.75
2022-07-30T15:46:35.786Z,101447.47
2022-07-30T15:49:12.718Z,101444.72
2022-07-30T15:51:50.785Z,101440.50
2022-07-30T15:54:27.635Z,101443.97
2022-07-30T15:57:07.669Z,101442.25
2022-07-30T15:59:44.476Z,101450.31
2022-07-30T16:02:21.587Z,101437.38
2022-07-30T16:04:58.336Z,101437.78
2022-07-30T16:07:36.805Z,101442.56
2022-07-30T16:10:14.057Z,101442.31
2022-07-30T16:12:53.747Z,101448.16
2022-07-30T16:15:30.769Z,101447.38
2022-07-30T16:18:08.643Z,101439.00
2022-07-30T16:20:45.330Z,101436.00
2022-07-30T16:23:22.386Z,101437.22
2022-07-30T16:25:59.067Z,101437.22
2022-07-30T16:28:39.798Z,101430.94
2022-07-30T16:31:16.566Z,101432.75
2022-07-30T16:33:53.615Z,101425.72
2022-07-30T16:36:30.457Z,101427.78
2022-07-30T16:39:08.556Z,101426.19
2022-07-30T16:41:45.639Z,101420.88
2022-07-30T16:44:27.388Z,101425.34
2022-07-30T16:47:04.209Z,101424.06
2022-07-30T16:49:41.248Z,101424.78
2022-07-30T16:52:18.616Z,101420.38
2022-07-30T16:54:55.647Z,101419.91
2022-07-30T16:57:32.388Z,101420.34
2022-07-30T17:00:15.515Z,101426.22
2022-07-30T17:02:52.647Z,101424.91
2022-07-30T17:05:30.733Z,101419.38
2022-07-30T17:08:09.905Z,101417.59
2022-07-30T17:10:50.186Z,101417.34
2022-07-30T17:13:27.321Z,101419.75
2022-07-30T17:16:07.450Z,101422.81
2022-07-30T17:18:44.307Z,101423.25
2022-07-30T17:21:21.627Z,101415.19
2022-07-30T17:23:58.317Z,101416.25
2022-07-30T17:26:35.743Z,101411.94
2022-07-30T17:29:14.852Z,101410.94
2022-07-30T17:31:55.506Z,101408.84
2022-07-30T17:34:32.491Z,101398.91
2022-07-30T17:37:09.569Z,101410.38
2022-07-30T17:40:19.160Z,101411.09
2022-07-30T17:42:45.724Z,101413.19
2022-07-30T17:45:22.447Z,101406.78
2022-07-30T17:48:02.393Z,101399.00
2022-07-30T17:50:39.459Z,101406.16
2022-07-30T17:53:16.499Z,101405.50
2022-07-30T17:55:57.561Z,101401.66
2022-07-30T17:58:35.499Z,101412.97
2022-07-30T18:01:12.325Z,101407.94
2022-07-30T18:03:52.019Z,101410.31
2022-07-30T18:06:28.780Z,101399.81
2022-07-30T18:09:06.696Z,101409.28
2022-07-30T18:11:44.094Z,101411.81
2022-07-30T18:14:21.149Z,101406.59
2022-07-30T18:16:58.949Z,101409.28
2022-07-30T18:19:38.661Z,101405.25
2022-07-30T18:22:29.103Z,101417.59
2022-07-30T18:25:07.727Z,101416.91
2022-07-30T18:27:44.520Z,101418.47
2022-07-30T18:30:22.001Z,101422.50
2022-07-30T18:32:58.832Z,101416.09
2022-07-30T18:35:39.329Z,101413.72
2022-07-30T18:38:16.130Z,101409.19
2022-07-30T18:41:00.762Z,101412.03
2022-07-30T18:43:48.161Z,101409.00
2022-07-30T18:46:25.699Z,101419.47
2022-07-30T18:49:15.445Z,101420.81
2022-07-30T18:52:03.017Z,101423.19
2022-07-30T18:54:40.916Z,101423.81
2022-07-30T18:57:18.267Z,101425.31
2022-07-30T18:59:55.073Z,101419.41
2022-07-30T19:02:32.174Z,101428.53
2022-07-30T19:05:11.284Z,101425.47
2022-07-30T19:07:57.870Z,101431.19
2022-07-30T19:10:36.104Z,101436.25
2022-07-30T19:13:13.280Z,101428.47
2022-07-30T19:15:50.246Z,101429.81
2022-07-30T19:18:27.396Z,101427.81
2022-07-30T19:21:04.336Z,101436.91
2022-07-30T19:23:44.517Z,101430.16
2022-07-30T19:26:21.816Z,101430.47
2022-07-30T19:28:58.885Z,101438.03
2022-07-30T19:31:35.648Z,101432.09
